sensor_id;sensor_type;location;lat;lon;timestamp;P1;durP1;ratioP1;P2;durP2;ratioP2
36315;SDS011;22343;50.820;2.666;2023-03-31T00:00:04;7.43;;;2.80;;
36315;SDS011;22343;50.820;2.666;2023-03-31T00:02:55;9.60;;;2.90;;
36315;SDS011;22343;50.820;2.666;2023-03-31T00:05:41;12.23;;;3.40;;
36315;SDS011;22343;50.820;2.666;2023-03-31T00:08:31;9.00;;;3.03;;
36315;SDS011;22343;50.820;2.666;2023-03-31T00:11:19;11.30;;;3.27;;
36315;SDS011;22343;50.820;2.666;2023-03-31T00:14:04;10.67;;;3.23;;
36315;SDS011;22343;50.820;2.666;2023-03-31T00:16:52;10.10;;;3.13;;
36315;SDS011;22343;50.820;2.666;2023-03-31T00:19:37;13.77;;;3.47;;
36315;SDS011;22343;50.820;2.666;2023-03-31T00:22:23;11.27;;;3.87;;
36315;SDS011;22343;50.820;2.666;2023-03-31T00:25:10;9.90;;;3.40;;
36315;SDS011;22343;50.820;2.666;2023-03-31T00:27:58;9.67;;;3.37;;
36315;SDS011;22343;50.820;2.666;2023-03-31T00:30:42;8.63;;;3.63;;
36315;SDS011;22343;50.820;2.666;2023-03-31T00:33:27;8.87;;;3.33;;
36315;SDS011;22343;50.820;2.666;2023-03-31T00:36:12;10.93;;;3.40;;
36315;SDS011;22343;50.820;2.666;2023-03-31T00:39:04;9.17;;;2.83;;
36315;SDS011;22343;50.820;2.666;2023-03-31T00:41:52;9.10;;;3.03;;
36315;SDS011;22343;50.820;2.666;2023-03-31T00:44:37;11.20;;;3.30;;
36315;SDS011;22343;50.820;2.666;2023-03-31T00:47:53;11.03;;;3.20;;
36315;SDS011;22343;50.820;2.666;2023-03-31T00:50:43;8.93;;;3.10;;
36315;SDS011;22343;50.820;2.666;2023-03-31T00:53:34;9.07;;;3.27;;
36315;SDS011;22343;50.820;2.666;2023-03-31T00:56:19;11.80;;;3.00;;
36315;SDS011;22343;50.820;2.666;2023-03-31T00:59:05;8.83;;;2.80;;
36315;SDS011;22343;50.820;2.666;2023-03-31T01:01:51;11.87;;;3.20;;
36315;SDS011;22343;50.820;2.666;2023-03-31T01:04:38;8.17;;;3.00;;
36315;SDS011;22343;50.820;2.666;2023-03-31T01:07:30;10.43;;;3.20;;
36315;SDS011;22343;50.820;2.666;2023-03-31T01:10:21;8.57;;;2.83;;
36315;SDS011;22343;50.820;2.666;2023-03-31T01:13:05;12.27;;;3.40;;
36315;SDS011;22343;50.820;2.666;2023-03-31T01:15:53;13.23;;;3.50;;
36315;SDS011;22343;50.820;2.666;2023-03-31T01:18:38;9.13;;;3.17;;
36315;SDS011;22343;50.820;2.666;2023-03-31T01:24:32;9.63;;;3.27;;
36315;SDS011;22343;50.820;2.666;2023-03-31T01:40:16;8.73;;;3.10;;
36315;SDS011;22343;50.820;2.666;2023-03-31T01:46:10;8.07;;;3.03;;
36315;SDS011;22343;50.820;2.666;2023-03-31T01:57:52;8.23;;;3.20;;
36315;SDS011;22343;50.820;2.666;2023-03-31T02:00:40;7.43;;;2.90;;
36315;SDS011;22343;50.820;2.666;2023-03-31T02:03:38;7.23;;;2.43;;
36315;SDS011;22343;50.820;2.666;2023-03-31T02:06:31;6.57;;;2.57;;
36315;SDS011;22343;50.820;2.666;2023-03-31T02:09:19;7.60;;;2.63;;
36315;SDS011;22343;50.820;2.666;2023-03-31T02:12:12;6.70;;;2.63;;
36315;SDS011;22343;50.820;2.666;2023-03-31T02:14:57;6.73;;;2.30;;
36315;SDS011;22343;50.820;2.666;2023-03-31T02:17:43;6.87;;;2.33;;
36315;SDS011;22343;50.820;2.666;2023-03-31T02:20:29;5.43;;;2.20;;
36315;SDS011;22343;50.820;2.666;2023-03-31T02:23:16;4.83;;;2.20;;
36315;SDS011;22343;50.820;2.666;2023-03-31T02:26:05;3.40;;;2.20;;
36315;SDS011;22343;50.820;2.666;2023-03-31T02:28:52;7.43;;;2.37;;
36315;SDS011;22343;50.820;2.666;2023-03-31T02:31:40;3.83;;;2.10;;
36315;SDS011;22343;50.820;2.666;2023-03-31T02:34:29;4.60;;;2.13;;
36315;SDS011;22343;50.820;2.666;2023-03-31T02:37:14;5.23;;;2.10;;
36315;SDS011;22343;50.820;2.666;2023-03-31T02:40:00;4.77;;;2.00;;
36315;SDS011;22343;50.820;2.666;2023-03-31T02:42:49;3.20;;;2.00;;
36315;SDS011;22343;50.820;2.666;2023-03-31T02:45:38;5.43;;;2.03;;
36315;SDS011;22343;50.820;2.666;2023-03-31T02:48:25;4.17;;;1.80;;
36315;SDS011;22343;50.820;2.666;2023-03-31T02:51:16;4.17;;;2.10;;
36315;SDS011;22343;50.820;2.666;2023-03-31T02:54:48;3.50;;;2.10;;
36315;SDS011;22343;50.820;2.666;2023-03-31T03:01:06;3.70;;;2.00;;
36315;SDS011;22343;50.820;2.666;2023-03-31T03:10:34;3.87;;;1.70;;
36315;SDS011;22343;50.820;2.666;2023-03-31T03:16:36;5.17;;;2.00;;
36315;SDS011;22343;50.820;2.666;2023-03-31T03:19:24;4.17;;;2.00;;
36315;SDS011;22343;50.820;2.666;2023-03-31T03:22:09;4.73;;;1.83;;
36315;SDS011;22343;50.820;2.666;2023-03-31T03:24:53;5.63;;;2.20;;
36315;SDS011;22343;50.820;2.666;2023-03-31T03:27:38;4.57;;;1.93;;
36315;SDS011;22343;50.820;2.666;2023-03-31T03:30:23;5.93;;;2.07;;
36315;SDS011;22343;50.820;2.666;2023-03-31T03:33:07;4.63;;;1.90;;
36315;SDS011;22343;50.820;2.666;2023-03-31T03:35:51;4.00;;;1.70;;
36315;SDS011;22343;50.820;2.666;2023-03-31T03:38:35;3.77;;;1.90;;
36315;SDS011;22343;50.820;2.666;2023-03-31T03:41:20;3.80;;;1.90;;
36315;SDS011;22343;50.820;2.666;2023-03-31T03:44:04;3.37;;;1.50;;
36315;SDS011;22343;50.820;2.666;2023-03-31T03:46:48;4.83;;;1.80;;
36315;SDS011;22343;50.820;2.666;2023-03-31T03:49:32;3.27;;;1.60;;
36315;SDS011;22343;50.820;2.666;2023-03-31T03:52:17;3.63;;;1.70;;
36315;SDS011;22343;50.820;2.666;2023-03-31T03:55:01;3.27;;;1.80;;
36315;SDS011;22343;50.820;2.666;2023-03-31T03:57:46;4.60;;;1.90;;
36315;SDS011;22343;50.820;2.666;2023-03-31T04:00:30;3.43;;;1.63;;
36315;SDS011;22343;50.820;2.666;2023-03-31T04:03:15;4.57;;;1.87;;
36315;SDS011;22343;50.820;2.666;2023-03-31T04:05:59;5.47;;;2.13;;
36315;SDS011;22343;50.820;2.666;2023-03-31T04:08:44;4.60;;;1.83;;
36315;SDS011;22343;50.820;2.666;2023-03-31T04:11:28;4.07;;;1.90;;
36315;SDS011;22343;50.820;2.666;2023-03-31T04:14:13;4.70;;;2.10;;
36315;SDS011;22343;50.820;2.666;2023-03-31T04:16:57;4.03;;;2.00;;
36315;SDS011;22343;50.820;2.666;2023-03-31T04:19:42;6.33;;;1.80;;
36315;SDS011;22343;50.820;2.666;2023-03-31T04:22:27;3.07;;;1.90;;
36315;SDS011;22343;50.820;2.666;2023-03-31T04:25:12;4.67;;;2.33;;
36315;SDS011;22343;50.820;2.666;2023-03-31T04:28:00;8.90;;;2.40;;
36315;SDS011;22343;50.820;2.666;2023-03-31T04:30:44;6.67;;;2.10;;
36315;SDS011;22343;50.820;2.666;2023-03-31T04:33:29;6.23;;;2.40;;
36315;SDS011;22343;50.820;2.666;2023-03-31T04:36:13;6.90;;;2.47;;
36315;SDS011;22343;50.820;2.666;2023-03-31T04:39:00;4.87;;;2.50;;
36315;SDS011;22343;50.820;2.666;2023-03-31T04:41:44;4.63;;;1.87;;
36315;SDS011;22343;50.820;2.666;2023-03-31T04:44:29;9.20;;;2.87;;
36315;SDS011;22343;50.820;2.666;2023-03-31T04:47:13;13.30;;;2.97;;
36315;SDS011;22343;50.820;2.666;2023-03-31T04:49:57;8.40;;;3.03;;
36315;SDS011;22343;50.820;2.666;2023-03-31T04:52:41;10.50;;;3.10;;
36315;SDS011;22343;50.820;2.666;2023-03-31T04:55:26;6.77;;;2.80;;
36315;SDS011;22343;50.820;2.666;2023-03-31T04:58:11;8.33;;;2.90;;
36315;SDS011;22343;50.820;2.666;2023-03-31T05:00:55;6.70;;;2.90;;
36315;SDS011;22343;50.820;2.666;2023-03-31T05:03:39;11.33;;;3.40;;
36315;SDS011;22343;50.820;2.666;2023-03-31T05:06:24;10.67;;;3.60;;
36315;SDS011;22343;50.820;2.666;2023-03-31T05:09:09;9.23;;;3.40;;
36315;SDS011;22343;50.820;2.666;2023-03-31T05:11:53;8.10;;;3.23;;
36315;SDS011;22343;50.820;2.666;2023-03-31T05:14:38;9.77;;;3.30;;
36315;SDS011;22343;50.820;2.666;2023-03-31T05:17:22;13.03;;;4.07;;
36315;SDS011;22343;50.820;2.666;2023-03-31T05:20:06;9.23;;;3.37;;
36315;SDS011;22343;50.820;2.666;2023-03-31T05:22:51;11.43;;;3.93;;
36315;SDS011;22343;50.820;2.666;2023-03-31T05:25:35;11.30;;;3.87;;
36315;SDS011;22343;50.820;2.666;2023-03-31T05:28:20;10.37;;;3.80;;
36315;SDS011;22343;50.820;2.666;2023-03-31T05:31:05;13.80;;;3.93;;
36315;SDS011;22343;50.820;2.666;2023-03-31T05:33:51;15.00;;;4.27;;
36315;SDS011;22343;50.820;2.666;2023-03-31T05:36:35;14.77;;;4.53;;
36315;SDS011;22343;50.820;2.666;2023-03-31T05:39:20;9.77;;;3.70;;
36315;SDS011;22343;50.820;2.666;2023-03-31T05:42:05;14.80;;;4.07;;
36315;SDS011;22343;50.820;2.666;2023-03-31T05:44:50;15.37;;;4.30;;
36315;SDS011;22343;50.820;2.666;2023-03-31T05:47:34;13.77;;;4.07;;
36315;SDS011;22343;50.820;2.666;2023-03-31T05:50:19;12.13;;;4.17;;
36315;SDS011;22343;50.820;2.666;2023-03-31T05:53:04;14.50;;;4.03;;
36315;SDS011;22343;50.820;2.666;2023-03-31T05:55:48;16.23;;;4.40;;
36315;SDS011;22343;50.820;2.666;2023-03-31T05:58:34;15.33;;;4.70;;
36315;SDS011;22343;50.820;2.666;2023-03-31T06:01:19;11.87;;;3.90;;
36315;SDS011;22343;50.820;2.666;2023-03-31T06:04:05;15.13;;;4.33;;
36315;SDS011;22343;50.820;2.666;2023-03-31T06:06:50;13.77;;;4.40;;
36315;SDS011;22343;50.820;2.666;2023-03-31T06:09:34;17.60;;;4.53;;
36315;SDS011;22343;50.820;2.666;2023-03-31T06:12:19;13.03;;;4.73;;
36315;SDS011;22343;50.820;2.666;2023-03-31T06:15:04;16.37;;;4.83;;
36315;SDS011;22343;50.820;2.666;2023-03-31T06:17:49;18.23;;;4.70;;
36315;SDS011;22343;50.820;2.666;2023-03-31T06:20:33;15.53;;;4.50;;
36315;SDS011;22343;50.820;2.666;2023-03-31T06:23:17;9.97;;;3.90;;
36315;SDS011;22343;50.820;2.666;2023-03-31T06:26:03;14.03;;;4.20;;
36315;SDS011;22343;50.820;2.666;2023-03-31T06:28:49;22.33;;;4.43;;
36315;SDS011;22343;50.820;2.666;2023-03-31T06:31:34;16.27;;;4.87;;
36315;SDS011;22343;50.820;2.666;2023-03-31T06:34:19;16.93;;;5.00;;
36315;SDS011;22343;50.820;2.666;2023-03-31T06:37:04;17.47;;;5.50;;
36315;SDS011;22343;50.820;2.666;2023-03-31T06:39:48;16.30;;;5.13;;
36315;SDS011;22343;50.820;2.666;2023-03-31T06:42:33;19.03;;;4.93;;
36315;SDS011;22343;50.820;2.666;2023-03-31T06:45:18;15.50;;;4.40;;
36315;SDS011;22343;50.820;2.666;2023-03-31T06:48:02;19.80;;;4.40;;
36315;SDS011;22343;50.820;2.666;2023-03-31T06:50:46;18.97;;;5.17;;
36315;SDS011;22343;50.820;2.666;2023-03-31T06:53:31;19.33;;;4.70;;
36315;SDS011;22343;50.820;2.666;2023-03-31T06:56:15;19.80;;;5.00;;
36315;SDS011;22343;50.820;2.666;2023-03-31T06:59:00;17.77;;;4.70;;
36315;SDS011;22343;50.820;2.666;2023-03-31T07:01:44;16.70;;;4.60;;
36315;SDS011;22343;50.820;2.666;2023-03-31T07:04:31;14.33;;;4.70;;
36315;SDS011;22343;50.820;2.666;2023-03-31T07:07:16;15.93;;;4.80;;
36315;SDS011;22343;50.820;2.666;2023-03-31T07:10:00;16.73;;;4.63;;
36315;SDS011;22343;50.820;2.666;2023-03-31T07:12:44;17.33;;;4.83;;
36315;SDS011;22343;50.820;2.666;2023-03-31T07:15:28;23.60;;;5.53;;
36315;SDS011;22343;50.820;2.666;2023-03-31T07:18:14;19.03;;;4.23;;
36315;SDS011;22343;50.820;2.666;2023-03-31T07:20:59;18.43;;;4.67;;
36315;SDS011;22343;50.820;2.666;2023-03-31T07:23:43;16.27;;;4.83;;
36315;SDS011;22343;50.820;2.666;2023-03-31T07:26:28;19.47;;;4.77;;
36315;SDS011;22343;50.820;2.666;2023-03-31T07:29:12;14.47;;;4.37;;
36315;SDS011;22343;50.820;2.666;2023-03-31T07:31:57;18.20;;;4.57;;
36315;SDS011;22343;50.820;2.666;2023-03-31T07:34:41;17.30;;;4.47;;
36315;SDS011;22343;50.820;2.666;2023-03-31T07:37:25;20.07;;;4.80;;
36315;SDS011;22343;50.820;2.666;2023-03-31T07:40:11;13.57;;;4.10;;
36315;SDS011;22343;50.820;2.666;2023-03-31T07:42:58;21.40;;;5.07;;
36315;SDS011;22343;50.820;2.666;2023-03-31T07:45:42;16.67;;;4.50;;
36315;SDS011;22343;50.820;2.666;2023-03-31T07:48:27;19.23;;;4.63;;
36315;SDS011;22343;50.820;2.666;2023-03-31T07:51:12;14.63;;;4.43;;
36315;SDS011;22343;50.820;2.666;2023-03-31T07:53:58;17.07;;;4.77;;
36315;SDS011;22343;50.820;2.666;2023-03-31T07:56:43;14.13;;;3.90;;
36315;SDS011;22343;50.820;2.666;2023-03-31T07:59:27;13.50;;;3.93;;
36315;SDS011;22343;50.820;2.666;2023-03-31T08:02:14;12.60;;;3.87;;
36315;SDS011;22343;50.820;2.666;2023-03-31T08:04:59;12.27;;;3.43;;
36315;SDS011;22343;50.820;2.666;2023-03-31T08:07:45;12.60;;;4.10;;
36315;SDS011;22343;50.820;2.666;2023-03-31T08:10:30;11.67;;;4.03;;
36315;SDS011;22343;50.820;2.666;2023-03-31T08:13:14;14.10;;;3.87;;
36315;SDS011;22343;50.820;2.666;2023-03-31T08:15:58;13.23;;;3.83;;
36315;SDS011;22343;50.820;2.666;2023-03-31T08:18:43;14.07;;;3.93;;
36315;SDS011;22343;50.820;2.666;2023-03-31T08:21:28;11.40;;;3.33;;
36315;SDS011;22343;50.820;2.666;2023-03-31T08:24:12;14.53;;;3.83;;
36315;SDS011;22343;50.820;2.666;2023-03-31T08:26:56;12.03;;;3.57;;
36315;SDS011;22343;50.820;2.666;2023-03-31T08:29:41;12.50;;;4.10;;
36315;SDS011;22343;50.820;2.666;2023-03-31T08:32:25;10.40;;;3.07;;
36315;SDS011;22343;50.820;2.666;2023-03-31T08:35:10;7.90;;;3.17;;
36315;SDS011;22343;50.820;2.666;2023-03-31T08:37:54;11.70;;;3.53;;
36315;SDS011;22343;50.820;2.666;2023-03-31T08:40:39;11.47;;;3.50;;
36315;SDS011;22343;50.820;2.666;2023-03-31T08:43:26;10.90;;;3.63;;
36315;SDS011;22343;50.820;2.666;2023-03-31T08:46:16;11.40;;;3.27;;
36315;SDS011;22343;50.820;2.666;2023-03-31T08:49:01;12.67;;;3.20;;
36315;SDS011;22343;50.820;2.666;2023-03-31T08:51:54;11.57;;;3.40;;
36315;SDS011;22343;50.820;2.666;2023-03-31T08:54:48;12.10;;;3.20;;
36315;SDS011;22343;50.820;2.666;2023-03-31T08:57:42;13.80;;;3.40;;
36315;SDS011;22343;50.820;2.666;2023-03-31T09:13:10;12.37;;;3.30;;
36315;SDS011;22343;50.820;2.666;2023-03-31T09:16:13;10.00;;;3.43;;
36315;SDS011;22343;50.820;2.666;2023-03-31T09:18:59;10.23;;;3.33;;
36315;SDS011;22343;50.820;2.666;2023-03-31T09:21:46;13.07;;;3.50;;
36315;SDS011;22343;50.820;2.666;2023-03-31T09:24:34;9.43;;;3.03;;
36315;SDS011;22343;50.820;2.666;2023-03-31T09:27:48;8.43;;;2.43;;
36315;SDS011;22343;50.820;2.666;2023-03-31T09:30:34;9.43;;;2.90;;
36315;SDS011;22343;50.820;2.666;2023-03-31T09:33:27;9.60;;;2.77;;
36315;SDS011;22343;50.820;2.666;2023-03-31T09:36:16;5.50;;;2.20;;
36315;SDS011;22343;50.820;2.666;2023-03-31T09:39:02;10.00;;;2.60;;
36315;SDS011;22343;50.820;2.666;2023-03-31T09:41:48;7.00;;;2.43;;
36315;SDS011;22343;50.820;2.666;2023-03-31T09:44:42;7.83;;;2.53;;
36315;SDS011;22343;50.820;2.666;2023-03-31T09:47:38;6.93;;;2.90;;
36315;SDS011;22343;50.820;2.666;2023-03-31T09:50:25;6.93;;;2.87;;
36315;SDS011;22343;50.820;2.666;2023-03-31T09:53:14;8.47;;;2.97;;
36315;SDS011;22343;50.820;2.666;2023-03-31T09:56:03;9.70;;;3.10;;
36315;SDS011;22343;50.820;2.666;2023-03-31T09:58:51;6.77;;;2.70;;
36315;SDS011;22343;50.820;2.666;2023-03-31T10:01:35;10.03;;;3.20;;
36315;SDS011;22343;50.820;2.666;2023-03-31T10:04:24;9.97;;;3.20;;
36315;SDS011;22343;50.820;2.666;2023-03-31T10:07:10;7.73;;;2.63;;
36315;SDS011;22343;50.820;2.666;2023-03-31T10:09:55;13.03;;;3.10;;
36315;SDS011;22343;50.820;2.666;2023-03-31T10:12:40;7.73;;;3.00;;
36315;SDS011;22343;50.820;2.666;2023-03-31T10:15:37;8.17;;;2.47;;
36315;SDS011;22343;50.820;2.666;2023-03-31T10:18:30;7.90;;;2.43;;
36315;SDS011;22343;50.820;2.666;2023-03-31T10:24:08;8.23;;;2.53;;
36315;SDS011;22343;50.820;2.666;2023-03-31T10:26:54;7.13;;;2.03;;
36315;SDS011;22343;50.820;2.666;2023-03-31T10:29:39;6.33;;;2.30;;
36315;SDS011;22343;50.820;2.666;2023-03-31T10:32:28;4.53;;;2.50;;
36315;SDS011;22343;50.820;2.666;2023-03-31T10:35:31;5.40;;;2.30;;
36315;SDS011;22343;50.820;2.666;2023-03-31T10:38:22;7.73;;;2.40;;
36315;SDS011;22343;50.820;2.666;2023-03-31T10:41:10;7.83;;;2.00;;
36315;SDS011;22343;50.820;2.666;2023-03-31T10:43:56;7.87;;;2.37;;
36315;SDS011;22343;50.820;2.666;2023-03-31T10:46:45;6.57;;;2.60;;
36315;SDS011;22343;50.820;2.666;2023-03-31T10:49:39;5.40;;;2.40;;
36315;SDS011;22343;50.820;2.666;2023-03-31T10:52:25;7.33;;;2.77;;
36315;SDS011;22343;50.820;2.666;2023-03-31T10:55:11;8.43;;;2.50;;
36315;SDS011;22343;50.820;2.666;2023-03-31T10:58:10;7.87;;;2.77;;
36315;SDS011;22343;50.820;2.666;2023-03-31T11:04:38;8.00;;;2.80;;
36315;SDS011;22343;50.820;2.666;2023-03-31T11:10:23;9.80;;;2.83;;
36315;SDS011;22343;50.820;2.666;2023-03-31T11:13:19;10.53;;;3.00;;
36315;SDS011;22343;50.820;2.666;2023-03-31T11:22:41;8.13;;;2.50;;
36315;SDS011;22343;50.820;2.666;2023-03-31T11:31:43;10.17;;;3.00;;
36315;SDS011;22343;50.820;2.666;2023-03-31T11:46:23;8.20;;;3.30;;
36315;SDS011;22343;50.820;2.666;2023-03-31T11:49:12;9.17;;;2.83;;
36315;SDS011;22343;50.820;2.666;2023-03-31T11:52:01;10.07;;;2.97;;
36315;SDS011;22343;50.820;2.666;2023-03-31T12:01:13;9.50;;;2.73;;
36315;SDS011;22343;50.820;2.666;2023-03-31T12:06:39;10.60;;;3.17;;
36315;SDS011;22343;50.820;2.666;2023-03-31T12:09:34;12.30;;;3.27;;
36315;SDS011;22343;50.820;2.666;2023-03-31T12:12:23;9.37;;;2.90;;
36315;SDS011;22343;50.820;2.666;2023-03-31T12:15:13;9.73;;;3.07;;
36315;SDS011;22343;50.820;2.666;2023-03-31T12:18:39;10.10;;;2.90;;
36315;SDS011;22343;50.820;2.666;2023-03-31T12:21:19;9.80;;;2.83;;
36315;SDS011;22343;50.820;2.666;2023-03-31T12:24:03;10.30;;;2.80;;
36315;SDS011;22343;50.820;2.666;2023-03-31T12:33:26;12.03;;;3.27;;
36315;SDS011;22343;50.820;2.666;2023-03-31T12:42:40;9.27;;;3.00;;
36315;SDS011;22343;50.820;2.666;2023-03-31T12:45:40;12.00;;;3.13;;
36315;SDS011;22343;50.820;2.666;2023-03-31T12:57:23;13.37;;;3.27;;
36315;SDS011;22343;50.820;2.666;2023-03-31T13:00:18;7.13;;;2.80;;
36315;SDS011;22343;50.820;2.666;2023-03-31T13:11:54;12.03;;;3.50;;
36315;SDS011;22343;50.820;2.666;2023-03-31T13:14:39;14.70;;;4.00;;
36315;SDS011;22343;50.820;2.666;2023-03-31T13:20:35;14.17;;;3.40;;
36315;SDS011;22343;50.820;2.666;2023-03-31T13:23:23;8.67;;;3.10;;
36315;SDS011;22343;50.820;2.666;2023-03-31T13:26:45;15.97;;;3.57;;
36315;SDS011;22343;50.820;2.666;2023-03-31T13:29:42;9.13;;;2.93;;
36315;SDS011;22343;50.820;2.666;2023-03-31T13:32:27;12.17;;;3.20;;
36315;SDS011;22343;50.820;2.666;2023-03-31T13:35:30;9.40;;;2.80;;
36315;SDS011;22343;50.820;2.666;2023-03-31T13:47:18;10.87;;;3.87;;
36315;SDS011;22343;50.820;2.666;2023-03-31T13:50:32;11.53;;;4.43;;
36315;SDS011;22343;50.820;2.666;2023-03-31T13:56:51;10.80;;;4.03;;
36315;SDS011;22343;50.820;2.666;2023-03-31T14:05:55;13.43;;;3.67;;
36315;SDS011;22343;50.820;2.666;2023-03-31T14:08:46;17.27;;;4.10;;
36315;SDS011;22343;50.820;2.666;2023-03-31T14:11:34;12.07;;;3.77;;
36315;SDS011;22343;50.820;2.666;2023-03-31T14:14:19;17.13;;;4.07;;
36315;SDS011;22343;50.820;2.666;2023-03-31T14:17:03;12.97;;;4.07;;
36315;SDS011;22343;50.820;2.666;2023-03-31T14:25:52;12.73;;;3.80;;
36315;SDS011;22343;50.820;2.666;2023-03-31T14:28:59;15.53;;;3.83;;
36315;SDS011;22343;50.820;2.666;2023-03-31T14:38:13;14.47;;;4.27;;
36315;SDS011;22343;50.820;2.666;2023-03-31T14:41:00;14.90;;;3.90;;
36315;SDS011;22343;50.820;2.666;2023-03-31T14:43:48;14.60;;;3.90;;
36315;SDS011;22343;50.820;2.666;2023-03-31T14:46:37;14.50;;;3.80;;
36315;SDS011;22343;50.820;2.666;2023-03-31T14:49:26;21.40;;;4.40;;
36315;SDS011;22343;50.820;2.666;2023-03-31T14:52:13;18.83;;;4.10;;
36315;SDS011;22343;50.820;2.666;2023-03-31T14:55:02;13.07;;;4.17;;
36315;SDS011;22343;50.820;2.666;2023-03-31T14:57:47;12.90;;;3.90;;
36315;SDS011;22343;50.820;2.666;2023-03-31T15:00:32;14.07;;;4.30;;
36315;SDS011;22343;50.820;2.666;2023-03-31T15:03:17;18.83;;;4.67;;
36315;SDS011;22343;50.820;2.666;2023-03-31T15:06:02;24.03;;;6.60;;
36315;SDS011;22343;50.820;2.666;2023-03-31T15:08:47;39.40;;;18.00;;
36315;SDS011;22343;50.820;2.666;2023-03-31T15:11:32;16.33;;;4.57;;
36315;SDS011;22343;50.820;2.666;2023-03-31T15:14:16;15.63;;;4.37;;
36315;SDS011;22343;50.820;2.666;2023-03-31T15:17:01;18.00;;;4.77;;
36315;SDS011;22343;50.820;2.666;2023-03-31T15:19:45;19.90;;;5.40;;
36315;SDS011;22343;50.820;2.666;2023-03-31T15:22:29;17.80;;;4.33;;
36315;SDS011;22343;50.820;2.666;2023-03-31T15:25:14;15.07;;;5.00;;
36315;SDS011;22343;50.820;2.666;2023-03-31T15:28:05;23.27;;;5.50;;
36315;SDS011;22343;50.820;2.666;2023-03-31T15:30:51;16.30;;;4.70;;
36315;SDS011;22343;50.820;2.666;2023-03-31T15:33:35;18.90;;;4.80;;
36315;SDS011;22343;50.820;2.666;2023-03-31T15:36:24;18.67;;;5.37;;
36315;SDS011;22343;50.820;2.666;2023-03-31T15:39:10;17.93;;;5.30;;
36315;SDS011;22343;50.820;2.666;2023-03-31T15:41:56;23.17;;;5.27;;
36315;SDS011;22343;50.820;2.666;2023-03-31T15:47:28;22.90;;;5.40;;
36315;SDS011;22343;50.820;2.666;2023-03-31T15:50:13;13.30;;;4.37;;
36315;SDS011;22343;50.820;2.666;2023-03-31T15:52:58;15.30;;;5.10;;
36315;SDS011;22343;50.820;2.666;2023-03-31T15:55:45;18.47;;;4.70;;
36315;SDS011;22343;50.820;2.666;2023-03-31T16:01:47;17.97;;;4.63;;
36315;SDS011;22343;50.820;2.666;2023-03-31T16:04:32;15.67;;;4.93;;
36315;SDS011;22343;50.820;2.666;2023-03-31T16:07:18;20.23;;;4.53;;
36315;SDS011;22343;50.820;2.666;2023-03-31T16:10:16;19.50;;;4.93;;
36315;SDS011;22343;50.820;2.666;2023-03-31T16:13:04;15.53;;;3.97;;
36315;SDS011;22343;50.820;2.666;2023-03-31T16:15:50;11.70;;;4.57;;
36315;SDS011;22343;50.820;2.666;2023-03-31T16:18:41;18.27;;;4.10;;
36315;SDS011;22343;50.820;2.666;2023-03-31T16:21:27;14.50;;;3.60;;
36315;SDS011;22343;50.820;2.666;2023-03-31T16:24:18;19.03;;;4.40;;
36315;SDS011;22343;50.820;2.666;2023-03-31T16:27:04;19.90;;;4.73;;
36315;SDS011;22343;50.820;2.666;2023-03-31T16:29:50;16.87;;;4.40;;
36315;SDS011;22343;50.820;2.666;2023-03-31T16:36:01;18.90;;;4.90;;
36315;SDS011;22343;50.820;2.666;2023-03-31T16:38:45;16.17;;;4.30;;
36315;SDS011;22343;50.820;2.666;2023-03-31T16:41:33;18.53;;;5.07;;
36315;SDS011;22343;50.820;2.666;2023-03-31T16:44:20;17.70;;;4.43;;
36315;SDS011;22343;50.820;2.666;2023-03-31T16:47:06;18.23;;;5.40;;
36315;SDS011;22343;50.820;2.666;2023-03-31T16:49:50;15.90;;;4.77;;
36315;SDS011;22343;50.820;2.666;2023-03-31T16:52:34;19.33;;;4.87;;
36315;SDS011;22343;50.820;2.666;2023-03-31T16:55:19;18.90;;;5.60;;
36315;SDS011;22343;50.820;2.666;2023-03-31T16:58:04;19.70;;;5.10;;
36315;SDS011;22343;50.820;2.666;2023-03-31T17:00:48;13.77;;;4.80;;
36315;SDS011;22343;50.820;2.666;2023-03-31T17:03:33;21.00;;;5.30;;
36315;SDS011;22343;50.820;2.666;2023-03-31T17:06:20;19.60;;;4.90;;
36315;SDS011;22343;50.820;2.666;2023-03-31T17:09:04;20.60;;;5.17;;
36315;SDS011;22343;50.820;2.666;2023-03-31T17:11:48;21.90;;;4.57;;
36315;SDS011;22343;50.820;2.666;2023-03-31T17:14:33;15.33;;;4.97;;
36315;SDS011;22343;50.820;2.666;2023-03-31T17:17:17;23.17;;;5.17;;
36315;SDS011;22343;50.820;2.666;2023-03-31T17:20:02;16.07;;;4.80;;
36315;SDS011;22343;50.820;2.666;2023-03-31T17:22:50;19.00;;;5.00;;
36315;SDS011;22343;50.820;2.666;2023-03-31T17:25:35;20.33;;;4.73;;
36315;SDS011;22343;50.820;2.666;2023-03-31T17:28:20;19.17;;;4.60;;
36315;SDS011;22343;50.820;2.666;2023-03-31T17:33:56;17.13;;;4.77;;
36315;SDS011;22343;50.820;2.666;2023-03-31T17:36:41;15.83;;;4.10;;
36315;SDS011;22343;50.820;2.666;2023-03-31T17:39:27;15.00;;;4.10;;
36315;SDS011;22343;50.820;2.666;2023-03-31T17:42:12;11.57;;;3.97;;
36315;SDS011;22343;50.820;2.666;2023-03-31T17:44:56;15.70;;;4.60;;
36315;SDS011;22343;50.820;2.666;2023-03-31T17:47:41;16.30;;;4.87;;
36315;SDS011;22343;50.820;2.666;2023-03-31T17:50:27;15.93;;;4.30;;
36315;SDS011;22343;50.820;2.666;2023-03-31T17:53:11;15.17;;;4.20;;
36315;SDS011;22343;50.820;2.666;2023-03-31T17:55:56;21.00;;;4.60;;
36315;SDS011;22343;50.820;2.666;2023-03-31T17:58:40;14.93;;;4.13;;
36315;SDS011;22343;50.820;2.666;2023-03-31T18:01:25;15.57;;;4.40;;
36315;SDS011;22343;50.820;2.666;2023-03-31T18:04:09;12.43;;;4.10;;
36315;SDS011;22343;50.820;2.666;2023-03-31T18:06:54;18.13;;;4.47;;
36315;SDS011;22343;50.820;2.666;2023-03-31T18:09:39;13.70;;;4.00;;
36315;SDS011;22343;50.820;2.666;2023-03-31T18:12:23;16.10;;;4.07;;
36315;SDS011;22343;50.820;2.666;2023-03-31T18:15:08;16.37;;;4.07;;
36315;SDS011;22343;50.820;2.666;2023-03-31T18:17:53;15.03;;;4.40;;
36315;SDS011;22343;50.820;2.666;2023-03-31T18:20:38;16.43;;;4.43;;
36315;SDS011;22343;50.820;2.666;2023-03-31T18:23:22;15.53;;;4.30;;
36315;SDS011;22343;50.820;2.666;2023-03-31T18:26:08;13.53;;;3.87;;
36315;SDS011;22343;50.820;2.666;2023-03-31T18:28:53;19.93;;;4.33;;
36315;SDS011;22343;50.820;2.666;2023-03-31T18:31:38;15.97;;;4.83;;
36315;SDS011;22343;50.820;2.666;2023-03-31T18:34:22;14.30;;;4.30;;
36315;SDS011;22343;50.820;2.666;2023-03-31T18:37:07;16.77;;;4.47;;
36315;SDS011;22343;50.820;2.666;2023-03-31T18:39:51;12.53;;;3.93;;
36315;SDS011;22343;50.820;2.666;2023-03-31T18:42:36;14.57;;;4.50;;
36315;SDS011;22343;50.820;2.666;2023-03-31T18:45:20;12.93;;;4.47;;
36315;SDS011;22343;50.820;2.666;2023-03-31T18:48:05;16.60;;;4.60;;
36315;SDS011;22343;50.820;2.666;2023-03-31T18:50:50;17.03;;;4.20;;
36315;SDS011;22343;50.820;2.666;2023-03-31T18:53:35;14.80;;;4.37;;
36315;SDS011;22343;50.820;2.666;2023-03-31T18:56:19;16.23;;;4.00;;
36315;SDS011;22343;50.820;2.666;2023-03-31T18:59:06;14.67;;;4.27;;
36315;SDS011;22343;50.820;2.666;2023-03-31T19:01:50;14.17;;;3.93;;
36315;SDS011;22343;50.820;2.666;2023-03-31T19:04:35;16.70;;;4.23;;
36315;SDS011;22343;50.820;2.666;2023-03-31T19:07:19;15.20;;;4.60;;
36315;SDS011;22343;50.820;2.666;2023-03-31T19:10:04;16.27;;;4.20;;
36315;SDS011;22343;50.820;2.666;2023-03-31T19:12:49;17.03;;;4.63;;
36315;SDS011;22343;50.820;2.666;2023-03-31T19:15:34;19.03;;;4.80;;
36315;SDS011;22343;50.820;2.666;2023-03-31T19:18:20;13.03;;;4.00;;
36315;SDS011;22343;50.820;2.666;2023-03-31T19:21:05;17.90;;;4.30;;
36315;SDS011;22343;50.820;2.666;2023-03-31T19:23:50;20.73;;;4.67;;
36315;SDS011;22343;50.820;2.666;2023-03-31T19:26:34;19.43;;;5.40;;
36315;SDS011;22343;50.820;2.666;2023-03-31T19:29:19;18.23;;;4.70;;